Flight Track Log - Related Links

Times and Time Zones

All times are in EDT time to prevent confusion due to time zone crossing. See the CAL5 flight status page for this flight to view local times or setup timezone preferences in your user account.

Time Position Orientation Groundspeed Altitude Reporting Facility
EDT Latitude Longitude Course Direction KTS MPH feet Rate Location/Type
Thu 07:26:15 PM 33.9319 -118.4489 265° West 182 209 1,400  Level Los Center
Thu 07:27:18 PM 33.9264 -118.5281 265° West 214 246 2,200 960 Climbing Los Center
Thu 07:28:20 PM 33.9175 -118.6233 264° West 266 306 3,400 1,645 Climbing Los Center
Thu 07:29:22 PM 33.9064 -118.7208 262° West 292 336 5,600 2,129 Climbing Los Center
Thu 07:30:24 PM 33.8950 -118.8200 262° West 306 352 7,800 2,129 Climbing Los Center
Thu 07:31:26 PM 33.8839 -118.9231 263° West 311 358 10,000 1,694 Climbing Los Center
Thu 07:32:28 PM 33.8867 -119.0311 272° West 334 384 11,300 1,355 Climbing Los Center
Thu 07:33:30 PM 33.9292 -119.1719 290° West 379 436 12,800 1,597 Climbing Los Center
Thu 07:34:32 PM 33.9675 -119.2947 291° West 394 453 14,600 1,728 Climbing Los Center
Thu 07:35:35 PM 34.0050 -119.4222 290° West 404 465 16,400 1,584 Climbing Los Center
Thu 07:36:37 PM 34.0431 -119.5522 289° West 410 472 17,900 1,452 Climbing Los Center
Thu 07:37:39 PM 34.1086 -119.6672 305° West 427 491 19,400 1,403 Climbing Los Center
Thu 07:38:41 PM 34.1994 -119.7667 318° Northwest 438 504 20,800 1,403 Climbing Los Center
Thu 07:39:43 PM 34.3078 -119.8875 317° Northwest 441 507 22,300 1,258 Climbing Los Center
Thu 07:40:45 PM 34.3997 -119.9922 317° Northwest 450 518 23,400 919 Climbing Los Center
Thu 07:41:47 PM 34.4753 -120.0767 317° Northwest 457 526 24,200 919 Climbing Los Center
Thu 07:42:49 PM 34.5928 -120.2047 318° Northwest 467 537 25,300 864 Climbing Los Center
Thu 07:43:52 PM 34.7047 -120.3286 318° Northwest 479 551 26,000 288 Climbing Los Center
Thu 07:44:54 PM 34.7883 -120.4267 316° Northwest 479 551 25,900 97 Descending Los Center
Thu 07:45:56 PM 34.8933 -120.5464 317° Northwest 474 545 26,200 532 Climbing Los Center
Thu 07:46:58 PM 34.9900 -120.6564 317° Northwest 480 552 27,000 1,016 Climbing Los Center
Thu 07:48:00 PM 35.1072 -120.7906 317° Northwest 485 558 28,300 1,161 Climbing Los Center
Thu 07:49:02 PM 35.2039 -120.9011 317° Northwest 479 551 29,400 823 Climbing Los Center
Thu 07:50:04 PM 35.3003 -121.0117 317° Northwest 477 549 30,000 290 Climbing Los Center
Thu 07:51:06 PM 35.3981 -121.1186 318° Northwest 471 542 30,000 -72 Level Los Center
Thu 07:51:27 PM 35.4369 -121.1603 319° Northwest 476 548 29,900 -72 Descending Oakland Center
Thu 07:52:29 PM 35.5347 -121.2647 319° Northwest 481 554 29,900 49 Level Oakland Center
Thu 07:53:30 PM 35.6322 -121.3733 318° Northwest 472 543 30,000 49 Climbing Oakland Center
Thu 07:54:32 PM 35.7292 -121.4806 318° Northwest 468 539 30,000 -48 Level Oakland Center
Thu 07:55:34 PM 35.8286 -121.5858 319° Northwest 469 540 29,900 -48 Descending Oakland Center
Thu 07:56:36 PM 35.9453 -121.7144 318° Northwest 469 540 29,900 49 Level Oakland Center
Thu 07:57:37 PM 36.0378 -121.8164 318° Northwest 468 539 30,000  Climbing Oakland Center
Thu 07:58:38 PM 36.1342 -121.9228 318° Northwest 467 537 29,900 -49 Descending Oakland Center
Thu 07:59:40 PM 36.2308 -122.0283 319° Northwest 464 534 29,900  Level Oakland Center
Thu 08:00:41 PM 36.3256 -122.1350 318° Northwest 462 532 29,900 49 Level Oakland Center
Thu 08:01:43 PM 36.4211 -122.2400 319° Northwest 460 529 30,000  Climbing Oakland Center
Thu 08:02:44 PM 36.5356 -122.3667 318° Northwest 458 527 29,900 -49 Descending Oakland Center
Thu 08:03:46 PM 36.6303 -122.4700 319° Northwest 453 521 29,900 49 Level Oakland Center
Thu 08:04:47 PM 36.7239 -122.5781 317° Northwest 456 525 30,000  Climbing Oakland Center
Thu 08:05:49 PM 36.8175 -122.6842 318° Northwest 455 524 29,900  Descending Oakland Center
Thu 08:06:50 PM 36.9114 -122.7883 318° Northwest 454 522 30,000  Climbing Oakland Center
Thu 08:07:52 PM 37.0050 -122.8983 317° Northwest 457 526 29,900 -49 Descending Oakland Center
Thu 08:08:53 PM 37.0986 -123.0019 319° Northwest 452 520 29,900  Level Oakland Center
Thu 08:09:55 PM 37.1906 -123.1089 317° Northwest 450 518 29,900  Level Oakland Center
Thu 08:10:56 PM 37.2847 -123.2142 318° Northwest 451 519 29,900  Level Oakland Center
Thu 08:11:58 PM 37.3953 -123.3392 318° Northwest 446 513 29,900 49 Level Oakland Center
Thu 08:12:59 PM 37.4875 -123.4450 318° Northwest 448 516 30,000  Climbing Oakland Center
Thu 08:14:01 PM 37.5794 -123.5517 317° Northwest 448 516 29,900  Descending Oakland Center
Thu 08:15:02 PM 37.6731 -123.6600 318° Northwest 450 518 30,000  Climbing Oakland Center
Thu 08:16:03 PM 37.7658 -123.7675 318° Northwest 452 520 29,900 -49 Descending Oakland Center
Thu 08:17:05 PM 37.8575 -123.8747 317° Northwest 448 516 29,900  Level Oakland Center
Thu 08:18:06 PM 37.9503 -123.9831 317° Northwest 451 519 29,900  Level Oakland Center
Thu 08:19:08 PM 38.0425 -124.0914 317° Northwest 452 520 29,900  Level Oakland Center
Thu 08:20:09 PM 38.1339 -124.1997 317° Northwest 449 517 29,900  Level Oakland Center
Thu 08:21:10 PM 38.2256 -124.3083 317° Northwest 450 518 29,900 49 Level Oakland Center
Thu 08:22:12 PM 38.3350 -124.4422 316° Northwest 455 524 30,000 49 Climbing Oakland Center
Thu 08:23:13 PM 38.4286 -124.5508 318° Northwest 455 524 30,000 -49 Level Oakland Center
Thu 08:24:14 PM 38.5206 -124.6625 316° Northwest 457 526 29,900  Descending Oakland Center
Thu 08:25:16 PM 38.6125 -124.7747 316° Northwest 457 526 30,000 49 Climbing Oakland Center
Thu 08:26:17 PM 38.6964 -124.8750 317° Northwest 456 525 30,000  Level Oakland Center
Thu 08:27:18 PM 38.8083 -125.0108 317° Northwest 459 528 30,000  Level Oakland Center
Thu 08:28:20 PM 38.9017 -125.1236 317° Northwest 460 529 30,000  Level Oakland Center
Thu 08:29:21 PM 38.9953 -125.2392 316° Northwest 464 534 30,000  Level Oakland Center
Thu 08:30:22 PM 39.0872 -125.3531 316° Northwest 461 531 30,000  Level Oakland Center
Thu 08:31:23 PM 39.1697 -125.4522 317° Northwest 459 528 30,000  Level Oakland Center
Thu 08:32:25 PM 39.2789 -125.5892 316° Northwest 457 526 30,000  Level Oakland Center
Thu 08:33:26 PM 39.3711 -125.7036 316° Northwest 459 528 30,000 -49 Level Oakland Center
Thu 08:34:27 PM 39.4558 -125.8092 316° Northwest 459 528 29,900 -49 Descending Oakland Center
Thu 08:35:29 PM 39.5481 -125.9236 316° Northwest 458 527 29,900 49 Level Oakland Center
Thu 08:36:30 PM 39.6383 -126.0389 315° West 456 525 30,000 49 Climbing Oakland Center
Thu 08:37:31 PM 39.7297 -126.1539 316° Northwest 456 525 30,000  Level Oakland Center
Thu 08:38:32 PM 39.8389 -126.2917 316° Northwest 457 526 30,000 -49 Level Oakland Center
Thu 08:39:34 PM 39.9294 -126.4058 316° Northwest 455 524 29,900  Descending Oakland Center
Thu 08:40:35 PM 40.0189 -126.5208 315° West 454 522 30,000 49 Climbing Oakland Center
Thu 08:41:37 PM 40.1114 -126.6347 317° Northwest 454 522 30,000  Level Oakland Center
Thu 08:42:38 PM 40.2044 -126.7464 318° Northwest 455 524 30,000 -49 Level Oakland Center
Thu 08:43:39 PM 40.2942 -126.8606 316° Northwest 452 520 29,900  Descending Oakland Center
Thu 08:44:41 PM 40.3847 -126.9744 316° Northwest 451 519 30,000 40 Climbing Oakland Center
Thu 08:46:08 PM 40.5167 -127.1500 316° Northwest 450 518 30,000  Level Oakland Oceanic
Thu 08:52:00 PM 41.0541 -127.8373 316° Northwest 450 518 30,000  Level FlightAware
Thu 08:53:00 PM 41.1433 -127.9529 316° Northwest 450 518 30,000  Level FlightAware
Thu 08:54:00 PM 41.2324 -128.0689 316° Northwest 450 518 30,000  Level FlightAware
Thu 08:55:00 PM 41.3213 -128.1852 315° West 450 518 30,000  Level FlightAware
Thu 08:56:00 PM 41.4102 -128.3018 315° West 450 518 30,000  Level FlightAware
Thu 08:57:00 PM 41.4989 -128.4187 315° West 450 518 30,000  Level FlightAware
Thu 08:58:00 PM 41.5875 -128.5359 315° West 450 518 30,000  Level FlightAware
Thu 08:59:00 PM 41.6760 -128.6534 315° West 450 518 30,000  Level FlightAware
Thu 09:00:00 PM 41.7643 -128.7713 315° West 450 518 30,000  Level FlightAware
Thu 09:01:00 PM 41.8525 -128.8895 315° West 450 518 30,000  Level FlightAware
Thu 09:02:00 PM 41.9407 -129.0080 315° West 450 518 30,000  Level FlightAware
Thu 09:03:00 PM 42.0286 -129.1269 315° West 450 518 30,000  Level FlightAware
Thu 09:04:00 PM 42.1165 -129.2461 315° West 450 518 30,000  Level FlightAware
Thu 09:05:00 PM 42.2043 -129.3656 315° West 450 518 30,000  Level FlightAware
Thu 09:06:00 PM 42.2919 -129.4854 315° West 450 518 30,000  Level FlightAware
Thu 09:07:00 PM 42.3794 -129.6056 315° West 450 518 30,000  Level FlightAware
Thu 09:08:00 PM 42.4667 -129.7261 314° West 450 518 30,000  Level FlightAware
Thu 09:09:00 PM 42.5540 -129.8470 314° West 450 518 30,000  Level FlightAware
Thu 09:10:00 PM 42.6411 -129.9682 314° West 450 518 30,000  Level FlightAware
Thu 09:11:00 PM 42.7281 -130.0897 314° West 450 518 30,000  Level FlightAware
Thu 09:12:00 PM 42.8149 -130.2115 314° West 450 518 30,000  Level FlightAware
Thu 09:12:52 PM 42.8833 -130.3000 314° West 457 526 30,000  Level Oakland Oceanic
Thu 09:13:00 PM 42.9017 -130.3338 314° West 450 518 30,000  Level FlightAware
Thu 09:14:00 PM 42.9883 -130.4563 314° West 450 518 30,000  Level FlightAware
Thu 09:15:00 PM 43.0747 -130.5792 314° West 450 518 30,000  Level FlightAware
Thu 09:16:00 PM 43.1611 -130.7025 314° West 450 518 30,000  Level FlightAware
Thu 09:17:00 PM 43.2473 -130.8260 314° West 450 518 30,000  Level FlightAware
Thu 09:18:00 PM 43.3333 -130.9500 315° West 450 518 30,000  Level FlightAware
Thu 09:18:18 PM 43.3333 -130.9500 315° West 449 517 30,000  Level Oakland Oceanic
Thu 09:19:00 PM 43.4242 -131.0738 315° West 457 526 30,000  Level FlightAware
Thu 09:20:00 PM 43.5149 -131.1980 315° West 457 526 30,000  Level FlightAware
Thu 09:21:00 PM 43.6055 -131.3225 315° West 457 526 30,000  Level FlightAware
Thu 09:22:00 PM 43.6959 -131.4474 315° West 457 526 30,000  Level FlightAware
Thu 09:23:00 PM 43.7862 -131.5727 315° West 457 526 30,000  Level FlightAware
Thu 09:24:00 PM 43.8605 -131.6762 315° West 449 517 30,000  Level FlightAware
Thu 09:25:00 PM 43.9479 -131.7984 315° West 449 517 30,000  Level FlightAware
Thu 09:26:00 PM 44.0352 -131.9211 315° West 449 517 30,000  Level FlightAware
Thu 09:27:00 PM 44.1223 -132.0441 315° West 449 517 30,000  Level FlightAware
Thu 09:28:00 PM 44.2093 -132.1674 314° West 449 517 30,000  Level FlightAware
Thu 09:29:00 PM 44.2962 -132.2912 314° West 449 517 30,000  Level FlightAware
Thu 09:30:00 PM 44.3829 -132.4153 314° West 449 517 30,000  Level FlightAware
Thu 09:31:00 PM 44.4696 -132.5397 314° West 449 517 30,000  Level FlightAware
Thu 09:32:00 PM 44.5560 -132.6645 314° West 449 517 30,000  Level FlightAware
Thu 09:33:00 PM 44.6424 -132.7897 314° West 449 517 30,000  Level FlightAware
Thu 09:34:00 PM 44.7286 -132.9153 314° West 449 517 30,000  Level FlightAware
Thu 09:35:00 PM 44.8146 -133.0413 314° West 449 517 30,000  Level FlightAware
Thu 09:36:00 PM 44.9006 -133.1676 314° West 449 517 30,000  Level FlightAware
Thu 09:37:00 PM 44.9864 -133.2943 314° West 449 517 30,000  Level FlightAware
Thu 09:38:00 PM 45.0720 -133.4214 314° West 449 517 30,000  Level FlightAware
Thu 09:39:00 PM 45.1575 -133.5488 314° West 449 517 30,000  Level FlightAware
Thu 09:39:32 PM 45.2000 -133.6167 313° West 450 518 30,000  Level Oakland Oceanic
Thu 09:40:00 PM 45.2429 -133.6767 313° West 449 517 30,000  Level FlightAware
Thu 09:41:00 PM 45.3281 -133.8049 313° West 449 517 30,000  Level FlightAware
Thu 09:42:00 PM 45.4132 -133.9335 313° West 449 517 30,000  Level FlightAware
Thu 09:43:00 PM 45.4981 -134.0625 313° West 449 517 30,000  Level FlightAware
Thu 09:44:00 PM 45.5829 -134.1919 313° West 449 517 30,000  Level FlightAware
Thu 09:45:00 PM 45.7042 -134.3819 313° West 450 518 30,000  Level FlightAware
Thu 09:46:00 PM 45.7877 -134.5108 313° West 450 518 30,000  Level FlightAware
Thu 09:47:00 PM 45.8711 -134.6400 313° West 450 518 30,000  Level FlightAware
Thu 09:48:00 PM 45.9543 -134.7697 313° West 450 518 30,000  Level FlightAware
Thu 09:49:00 PM 46.0374 -134.8997 313° West 450 518 30,000  Level FlightAware
Thu 09:50:00 PM 46.1204 -135.0302 312° West 450 518 30,000  Level FlightAware
Thu 09:51:00 PM 46.2032 -135.1610 312° West 450 518 30,000  Level FlightAware
Thu 09:52:00 PM 46.2858 -135.2922 312° West 450 518 30,000  Level FlightAware
Thu 09:53:00 PM 46.3683 -135.4238 312° West 450 518 30,000  Level FlightAware
Thu 09:54:00 PM 46.4506 -135.5559 312° West 450 518 30,000  Level FlightAware
Thu 09:55:00 PM 46.5328 -135.6883 312° West 450 518 30,000  Level FlightAware
Thu 09:56:00 PM 46.6149 -135.8211 312° West 450 518 30,000  Level FlightAware
Thu 09:57:00 PM 46.6967 -135.9543 312° West 450 518 30,000  Level FlightAware
Thu 09:58:00 PM 46.7785 -136.0879 312° West 450 518 30,000  Level FlightAware
Thu 09:59:00 PM 46.8600 -136.2220 312° West 450 518 30,000  Level FlightAware
Thu 10:00:00 PM 46.9414 -136.3564 312° West 450 518 30,000  Level FlightAware
Thu 10:01:00 PM 47.0227 -136.4912 311° West 450 518 30,000  Level FlightAware
Thu 10:02:00 PM 47.1038 -136.6265 311° West 450 518 30,000  Level FlightAware
Thu 10:03:00 PM 47.1847 -136.7622 311° West 450 518 30,000  Level FlightAware
Thu 10:04:00 PM 47.2655 -136.8982 311° West 450 518 30,000  Level FlightAware
Thu 10:05:00 PM 47.3461 -137.0347 311° West 450 518 30,000  Level FlightAware
Thu 10:06:00 PM 47.4266 -137.1717 311° West 450 518 30,000 1,644 Level FlightAware
Thu 10:06:13 PM 47.4500 -137.2000 311° West 455 524 32,000  Climbing Oakland Oceanic
Thu 10:07:00 PM 47.5069 -137.3090 311° West 450 518 30,000 -1,121 Descending FlightAware
Thu 10:08:00 PM 47.5870 -137.4467 311° West 450 518 30,000  Level FlightAware
Thu 10:09:00 PM 47.6670 -137.5849 311° West 450 518 30,000  Level FlightAware
Thu 10:10:00 PM 47.7467 -137.7235 310° West 450 518 30,000  Level FlightAware
Thu 10:11:00 PM 47.8264 -137.8625 310° West 450 518 30,000 1,000 Level FlightAware
Thu 10:12:00 PM 47.9468 -138.0660 310° West 455 524 32,000 1,000 Climbing FlightAware
Thu 10:13:00 PM 48.0289 -138.2119 310° West 455 524 32,000  Level FlightAware
Thu 10:14:00 PM 48.1109 -138.3583 310° West 455 524 32,000  Level FlightAware
Thu 10:15:00 PM 48.1927 -138.5052 310° West 455 524 32,000  Level FlightAware
Thu 10:16:00 PM 48.2743 -138.6525 310° West 455 524 32,000  Level FlightAware
Thu 10:17:00 PM 48.3557 -138.8003 310° West 455 524 32,000  Level FlightAware
Thu 10:18:00 PM 48.4369 -138.9486 309° West 455 524 32,000  Level FlightAware
Thu 10:19:00 PM 48.5179 -139.0974 309° West 455 524 32,000  Level FlightAware
Thu 10:20:00 PM 48.5988 -139.2466 309° West 455 524 32,000  Level FlightAware
Thu 10:21:00 PM 48.6794 -139.3963 309° West 455 524 32,000  Level FlightAware
Thu 10:22:00 PM 48.7598 -139.5465 309° West 455 524 32,000  Level FlightAware
Thu 10:23:00 PM 48.8401 -139.6972 309° West 455 524 32,000  Level FlightAware
Thu 10:24:00 PM 48.9202 -139.8484 309° West 455 524 32,000  Level FlightAware
Thu 10:25:00 PM 49.0000 -140.0000 306° West 455 524 32,000  Level FlightAware
Thu 10:25:51 PM 49.0000 -140.0000 306° West 448 516 32,000  Level Oakland Oceanic
Thu 10:26:00 PM 49.0746 -140.1554 306° West 455 524 32,000  Level FlightAware
Thu 10:27:00 PM 49.1489 -140.3112 306° West 455 524 32,000  Level FlightAware
Thu 10:28:00 PM 49.2230 -140.4675 306° West 455 524 32,000  Level FlightAware
Thu 10:29:00 PM 49.2969 -140.6242 306° West 455 524 32,000  Level FlightAware
Thu 10:30:00 PM 49.3706 -140.7815 306° West 455 524 32,000  Level FlightAware
Thu 10:31:00 PM 49.4441 -140.9392 306° West 455 524 32,000  Level FlightAware
Thu 10:32:00 PM 49.4368 -140.9234 306° West 448 516 32,000  Level FlightAware
Thu 10:32:53 PM 49.5333 -141.1167 305° West 449 517 32,000  Level Oakland Oceanic
Thu 10:33:00 PM 49.5089 -141.0789 305° West 448 516 32,000  Level FlightAware
Thu 10:34:00 PM 49.5807 -141.2348 305° West 448 516 32,000  Level FlightAware
Thu 10:35:00 PM 49.6524 -141.3912 305° West 448 516 32,000  Level FlightAware
Thu 10:36:00 PM 49.7238 -141.5481 305° West 448 516 32,000  Level FlightAware
Thu 10:37:00 PM 49.7951 -141.7054 305° West 448 516 32,000  Level FlightAware
Thu 10:38:00 PM 49.8661 -141.8632 305° West 448 516 32,000  Level FlightAware
Thu 10:39:00 PM 49.9664 -142.0739 305° West 449 517 32,000  Level FlightAware
Thu 10:40:00 PM 50.0378 -142.2351 305° West 449 517 32,000  Level FlightAware
Thu 10:41:00 PM 50.1090 -142.3968 304° West 449 517 32,000  Level FlightAware
Thu 10:42:00 PM 50.1800 -142.5590 304° West 449 517 32,000  Level FlightAware
Thu 10:43:00 PM 50.2507 -142.7216 304° West 449 517 32,000  Level FlightAware
Thu 10:44:00 PM 50.3212 -142.8848 304° West 449 517 32,000  Level FlightAware
Thu 10:45:00 PM 50.3915 -143.0484 304° West 449 517 32,000  Level FlightAware
Thu 10:46:00 PM 50.4616 -143.2125 304° West 449 517 32,000  Level FlightAware
Thu 10:47:00 PM 50.5314 -143.3771 304° West 449 517 32,000  Level FlightAware
Thu 10:48:00 PM 50.6009 -143.5422 304° West 449 517 32,000  Level FlightAware
Thu 10:49:00 PM 50.6703 -143.7077 303° West 449 517 32,000  Level FlightAware
Thu 10:50:00 PM 50.7394 -143.8738 303° West 449 517 32,000  Level FlightAware
Thu 10:51:00 PM 50.8083 -144.0403 303° West 449 517 32,000  Level FlightAware
Thu 10:52:00 PM 50.8769 -144.2074 303° West 449 517 32,000  Level FlightAware
Thu 10:53:00 PM 50.9453 -144.3749 303° West 449 517 32,000  Level FlightAware
Thu 10:54:00 PM 51.0135 -144.5429 303° West 449 517 32,000  Level FlightAware
Thu 10:55:00 PM 51.0814 -144.7114 303° West 449 517 32,000  Level FlightAware
Thu 10:56:00 PM 51.1491 -144.8804 302° West 449 517 32,000  Level FlightAware
Thu 10:57:00 PM 51.2165 -145.0499 302° West 449 517 32,000  Level FlightAware
Thu 10:58:00 PM 51.2837 -145.2199 302° West 449 517 32,000  Level FlightAware
Thu 10:59:00 PM 51.3506 -145.3904 302° West 449 517 32,000  Level FlightAware
Thu 10:59:33 PM 51.3167 -145.3167 302° West 435 501 32,000  Level Oakland Oceanic
Thu 11:00:00 PM 51.4173 -145.5614 302° West 449 517 32,000  Level FlightAware
Thu 11:01:00 PM 51.4838 -145.7329 302° West 449 517 32,000  Level FlightAware
Thu 11:02:00 PM 51.5500 -145.9049 302° West 449 517 32,000  Level FlightAware
Thu 11:03:00 PM 51.6159 -146.0774 302° West 449 517 32,000  Level FlightAware
Thu 11:04:00 PM 51.6816 -146.2504 301° West 449 517 32,000  Level FlightAware
Thu 11:05:00 PM 51.6928 -146.2905 301° West 435 501 32,000  Level FlightAware
Thu 11:06:00 PM 51.7547 -146.4543 301° West 435 501 32,000  Level FlightAware
Thu 11:07:00 PM 51.8164 -146.6187 301° West 435 501 32,000  Level FlightAware
Thu 11:08:00 PM 51.8778 -146.7834 301° West 435 501 32,000  Level FlightAware
Thu 11:09:00 PM 51.9390 -146.9487 301° West 435 501 32,000  Level FlightAware
Thu 11:10:00 PM 52.0000 -147.1143 301° West 435 501 32,000  Level FlightAware
Thu 11:11:00 PM 52.0607 -147.2804 301° West 435 501 32,000  Level FlightAware
Thu 11:12:00 PM 52.1212 -147.4470 301° West 435 501 32,000  Level FlightAware
Thu 11:13:00 PM 52.1815 -147.6140 300° West 435 501 32,000  Level FlightAware
Thu 11:14:00 PM 52.2416 -147.7815 300° West 435 501 32,000  Level FlightAware
Thu 11:15:00 PM 52.3013 -147.9494 300° West 435 501 32,000  Level FlightAware
Thu 11:16:00 PM 52.3609 -148.1178 300° West 435 501 32,000  Level FlightAware
Thu 11:17:00 PM 52.4202 -148.2866 300° West 435 501 32,000  Level FlightAware
Thu 11:18:00 PM 52.4793 -148.4559 300° West 435 501 32,000  Level FlightAware
Thu 11:19:00 PM 52.5382 -148.6257 300° West 435 501 32,000  Level FlightAware
Thu 11:20:00 PM 52.5967 -148.7959 299° West 435 501 32,000  Level FlightAware
Thu 11:21:00 PM 52.6551 -148.9665 299° West 435 501 32,000  Level FlightAware
Thu 11:22:00 PM 52.7132 -149.1376 299° West 435 501 32,000  Level FlightAware
Thu 11:23:00 PM 52.7711 -149.3092 299° West 435 501 32,000  Level FlightAware
Thu 11:24:00 PM 52.8287 -149.4812 299° West 435 501 32,000  Level FlightAware
Thu 11:25:00 PM 52.8860 -149.6537 299° West 435 501 32,000  Level FlightAware
Thu 11:26:00 PM 52.9431 -149.8266 299° West 435 501 32,000  Level FlightAware
Thu 11:26:14 PM 52.9500 -149.8667 302° West 468 539 32,000  Level Oakland Oceanic
Thu 11:27:00 PM 53.0000 -150.0000 284° West 435 501 32,000  Level FlightAware
Thu 11:27:09 PM 53.0000 -150.0000 284° West 448 516 32,000  Level Oakland Oceanic
Thu 11:28:00 PM 53.0298 -150.2073 283° West 435 501 32,000  Level FlightAware
Thu 11:29:00 PM 53.0593 -150.4148 283° West 435 501 32,000  Level FlightAware
Thu 11:30:00 PM 53.0885 -150.6227 283° West 435 501 32,000  Level FlightAware
Thu 11:31:00 PM 53.1172 -150.8308 283° West 435 501 32,000  Level FlightAware
Thu 11:32:00 PM 53.1487 -151.0619 283° West 468 539 32,000  Level FlightAware
Thu 11:33:00 PM 53.1668 -151.1968 283° West 448 516 32,000  Level FlightAware
Thu 11:34:00 PM 53.1934 -151.3971 282° West 448 516 32,000  Level FlightAware
Thu 11:35:00 PM 53.2197 -151.5977 282° West 448 516 32,000  Level FlightAware
Thu 11:36:00 PM 53.2457 -151.7986 282° West 448 516 32,000  Level FlightAware
Thu 11:37:00 PM 53.2713 -151.9996 282° West 448 516 32,000  Level FlightAware
Thu 11:38:00 PM 53.2966 -152.2010 282° West 448 516 32,000  Level FlightAware
Thu 11:39:00 PM 53.3215 -152.4025 282° West 448 516 32,000  Level FlightAware
Thu 11:40:00 PM 53.3461 -152.6043 281° West 448 516 32,000  Level FlightAware
Thu 11:41:00 PM 53.3704 -152.8063 281° West 448 516 32,000  Level FlightAware
Thu 11:42:00 PM 53.3943 -153.0086 281° West 448 516 32,000  Level FlightAware
Thu 11:43:00 PM 53.4179 -153.2111 281° West 448 516 32,000  Level FlightAware
Thu 11:44:00 PM 53.4411 -153.4138 281° West 448 516 32,000  Level FlightAware
Thu 11:45:00 PM 53.4640 -153.6167 281° West 448 516 32,000  Level FlightAware
Thu 11:46:00 PM 53.4865 -153.8199 280° West 448 516 32,000  Level FlightAware
Thu 11:47:00 PM 53.5088 -154.0232 280° West 448 516 32,000  Level FlightAware
Thu 11:48:00 PM 53.5306 -154.2268 280° West 448 516 32,000  Level FlightAware
Thu 11:49:00 PM 53.5521 -154.4306 280° West 448 516 32,000  Level FlightAware
Thu 11:50:00 PM 53.5733 -154.6345 280° West 448 516 32,000  Level FlightAware
Thu 11:51:00 PM 53.5941 -154.8387 280° West 448 516 32,000  Level FlightAware
Thu 11:52:00 PM 53.6146 -155.0431 279° West 448 516 32,000  Level FlightAware
Thu 11:52:53 PM 53.6333 -155.2667 279° West 456 525 32,000  Level Oakland Oceanic
Thu 11:53:00 PM 53.6347 -155.2477 279° West 448 516 32,000  Level FlightAware
Thu 11:54:00 PM 53.6545 -155.4525 279° West 448 516 32,000  Level FlightAware
Thu 11:55:00 PM 53.6739 -155.6574 279° West 448 516 32,000  Level FlightAware
Thu 11:56:00 PM 53.6930 -155.8626 279° West 448 516 32,000  Level FlightAware
Thu 11:57:00 PM 53.7117 -156.0679 279° West 448 516 32,000  Level FlightAware
Thu 11:58:00 PM 53.7300 -156.2734 279° West 448 516 32,000  Level FlightAware
Thu 11:59:00 PM 53.7518 -156.5491 278° West 456 525 32,000  Level FlightAware
Fri 12:01:58 AM 53.8052 -157.1857 278° West 456 525 32,000  Level FlightAware
Fri 12:01:59 AM 53.8055 -157.1893 278° West 456 525 32,000  Level FlightAware
Fri 12:03:00 AM 53.8231 -157.4078 278° West 456 525 32,000  Level FlightAware
Fri 12:03:00 AM 53.8231 -157.4078 278° West 456 525 32,000  Level FlightAware
Fri 12:04:00 AM 53.8400 -157.6230 277° West 456 525 32,000  Level FlightAware
Fri 12:04:00 AM 53.8400 -157.6230 277° West 456 525 32,000  Level FlightAware
Fri 12:05:00 AM 53.8564 -157.8383 277° West 456 525 32,000  Level FlightAware
Fri 12:06:00 AM 53.8726 -158.0538 277° West 456 525 32,000  Level FlightAware
Fri 12:07:00 AM 53.8883 -158.2694 277° West 456 525 32,000  Level FlightAware
Fri 12:08:00 AM 53.9036 -158.4852 277° West 456 525 32,000  Level FlightAware
Fri 12:09:00 AM 53.9185 -158.7012 277° West 456 525 32,000  Level FlightAware
Fri 12:10:00 AM 53.9331 -158.9173 276° West 456 525 32,000  Level FlightAware
Fri 12:11:00 AM 53.9472 -159.1335 276° West 456 525 32,000  Level FlightAware
Fri 12:12:00 AM 53.9610 -159.3499 276° West 456 525 32,000  Level FlightAware
Fri 12:13:00 AM 53.9744 -159.5665 276° West 456 525 32,000  Level FlightAware
Fri 12:14:00 AM 53.9874 -159.7832 276° West 456 525 32,000  Level FlightAware
Fri 12:15:00 AM 54.0000 -160.0000 274° West 456 525 32,000  Level FlightAware
Fri 12:15:39 AM 54.0000 -160.1500 273° West 470 541 32,000  Level Anchorage Center
Fri 12:16:00 AM 54.0092 -160.2266 274° West 456 525 32,000  Level FlightAware
Fri 12:16:39 AM 54.0000 -160.3833 270° West 460 529 32,000  Level Anchorage Center
Fri 12:17:00 AM 54.0180 -160.4532 274° West 456 525 32,000  Level FlightAware
Fri 12:17:39 AM 54.0167 -160.6000 278° West 460 529 32,000  Level Anchorage Center
Fri 12:18:00 AM 54.0263 -160.6800 273° West 456 525 32,000  Level FlightAware
Fri 12:18:39 AM 54.0167 -160.8167 270° West 460 529 32,000  Level Anchorage Center
Fri 12:19:00 AM 54.0343 -160.9068 273° West 456 525 32,000  Level FlightAware
Fri 12:19:39 AM 54.0333 -161.0333 278° West 450 518 32,000  Level Anchorage Center
Fri 12:20:00 AM 54.0418 -161.1338 273° West 456 525 32,000  Level FlightAware
Fri 12:20:39 AM 54.0333 -161.2500 270° West 450 518 32,000  Level Anchorage Center
Fri 12:21:39 AM 54.0500 -161.4667 278° West 460 529 32,000  Level Anchorage Center
Fri 12:22:39 AM 54.0500 -161.6833 270° West 460 529 32,000  Level Anchorage Center
Fri 12:23:40 AM 54.0500 -161.9167 270° West 460 529 32,000  Level Anchorage Center
Fri 12:24:40 AM 54.0667 -162.1333 278° West 460 529 32,000  Level Anchorage Center
Fri 12:25:40 AM 54.0667 -162.3500 270° West 460 529 32,000  Level Anchorage Center
Fri 12:26:40 AM 54.0667 -162.5667 270° West 460 529 32,000  Level Anchorage Center
Fri 12:27:40 AM 54.0833 -162.8000 277° West 460 529 32,000  Level Anchorage Center
Fri 12:28:40 AM 54.0833 -163.0167 270° West 460 529 32,000  Level Anchorage Center
Fri 12:29:41 AM 54.0833 -163.2500 270° West 470 541 32,000  Level Anchorage Center
Fri 12:30:41 AM 54.0833 -163.4667 270° West 460 529 32,000  Level Anchorage Center
Fri 12:31:41 AM 54.0833 -163.6833 270° West 460 529 32,000  Level Anchorage Center
Fri 12:32:38 AM 54.1000 -163.9167 277° West 460 529 32,000  Level Anchorage Center
Fri 12:33:39 AM 54.1000 -164.1333 270° West 460 529 32,000  Level Anchorage Center
Fri 12:34:38 AM 54.1000 -164.3500 270° West 470 541 32,000  Level Anchorage Center
Fri 12:35:38 AM 54.1000 -164.5833 270° West 460 529 32,000  Level Anchorage Center
Fri 12:36:39 AM 54.1000 -164.8000 270° West 460 529 32,000  Level Anchorage Center
Fri 12:37:39 AM 54.1000 -165.0333 270° West 470 541 32,000  Level Anchorage Center
Fri 12:38:39 AM 54.1000 -165.2500 270° West 460 529 32,000  Level Anchorage Center
Fri 12:39:39 AM 54.1000 -165.4167 270° West 450 518 32,000  Level Anchorage Center
Fri 12:40:39 AM 54.1000 -165.6500 270° West 460 529 32,000  Level Anchorage Center
Fri 12:41:39 AM 54.1000 -165.8667 270° West 460 529 32,000  Level Anchorage Center
Fri 12:42:39 AM 54.1000 -166.0833 270° West 460 529 32,000  Level Anchorage Center
Fri 12:43:40 AM 54.0833 -166.3000 263° West 460 529 32,000  Level Anchorage Center
Fri 12:44:39 AM 54.0833 -166.5167 270° West 460 529 32,000  Level Anchorage Center
Fri 12:45:39 AM 54.0833 -166.7500 270° West 460 529 32,000  Level Anchorage Center
Fri 12:46:39 AM 54.0833 -166.9667 270° West 460 529 32,000  Level Anchorage Center
Fri 12:47:39 AM 54.0833 -167.1833 270° West 460 529 32,000  Level Anchorage Center
Fri 12:48:39 AM 54.0667 -167.4000 263° West 460 529 32,000  Level Anchorage Center
Fri 12:49:39 AM 54.0667 -167.6167 270° West 460 529 32,000  Level Anchorage Center
Fri 12:50:40 AM 54.0667 -167.8500 270° West 460 529 32,000  Level Anchorage Center
Fri 12:51:39 AM 54.0667 -168.0667 270° West 460 529 32,000  Level Anchorage Center
Fri 12:52:40 AM 54.0500 -168.3167 264° West 460 529 32,000  Level Anchorage Center
Fri 12:53:40 AM 54.0500 -168.5333 270° West 460 529 32,000  Level Anchorage Center
Fri 12:54:39 AM 54.0333 -168.7333 262° West 450 518 32,000  Level Anchorage Center
Fri 12:55:40 AM 54.0333 -168.9667 270° West 460 529 32,000  Level Anchorage Center
Fri 12:56:40 AM 54.0167 -169.2000 263° West 470 541 32,000  Level Anchorage Center
Fri 12:57:41 AM 54.0167 -169.4167 270° West 460 529 32,000  Level Anchorage Center
Fri 12:58:40 AM 54.0000 -169.6333 263° West 460 529 32,000  Level Anchorage Center
Fri 12:59:40 AM 54.0000 -169.8500 270° West 450 518 32,000  Level Anchorage Center
Fri 01:00:40 AM 54.0000 -170.0667 270° West 460 529 32,000  Level Anchorage Center
Fri 01:01:40 AM 54.0000 -170.3000 270° West 470 541 32,000  Level Anchorage Center
Fri 01:02:40 AM 54.0167 -170.5167 278° West 470 541 32,000  Level Anchorage Center
Fri 01:03:40 AM 54.0167 -170.7500 270° West 460 529 32,000  Level Anchorage Center
Fri 01:04:41 AM 54.0333 -170.9667 278° West 480 552 32,000  Level Anchorage Center
Fri 01:05:40 AM 54.0333 -171.2000 270° West 470 541 32,000  Level Anchorage Center
Fri 01:06:41 AM 54.0500 -171.4333 277° West 470 541 32,000  Level Anchorage Center
Fri 01:07:40 AM 54.0500 -171.6500 270° West 470 541 32,000  Level Anchorage Center
Fri 01:08:40 AM 54.0500 -171.8833 270° West 480 552 32,000  Level Anchorage Center
Fri 01:09:41 AM 54.0667 -172.1000 278° West 470 541 32,000  Level Anchorage Center
Fri 01:10:41 AM 54.0667 -172.3333 270° West 470 541 32,000  Level Anchorage Center
Fri 01:11:41 AM 54.0667 -172.5500 270° West 460 529 32,000  Level Anchorage Center
Fri 01:12:41 AM 54.0833 -172.7333 279° West 470 541 32,000  Level Anchorage Center
Fri 01:13:41 AM 54.0833 -172.9500 270° West 460 529 32,000  Level Anchorage Center
Fri 01:14:41 AM 54.0833 -173.1667 270° West 470 541 32,000  Level Anchorage Center
Fri 01:15:41 AM 54.0833 -173.4000 270° West 460 529 32,000  Level Anchorage Center
Fri 01:16:41 AM 54.0833 -173.6167 270° West 470 541 32,000  Level Anchorage Center
Fri 01:17:41 AM 54.1000 -173.8500 277° West 480 552 32,000  Level Anchorage Center
Fri 01:18:41 AM 54.1000 -174.0667 270° West 470 541 32,000  Level Anchorage Center
Fri 01:19:41 AM 54.1000 -174.3000 270° West 470 541 32,000  Level Anchorage Center
Fri 01:20:41 AM 54.1000 -174.5167 270° West 460 529 32,000  Level Anchorage Center
Fri 01:21:41 AM 54.1000 -174.7500 270° West 480 552 32,000 53 Level Anchorage Center
Fri 01:23:00 AM 54.1005 -175.0476 270° West  Level FlightAware
Fri 01:30:00 AM 54.0908 -176.6293 270° West  Level FlightAware
Fri 01:31:00 AM 54.0877 -176.8552 269° West  Level FlightAware
Fri 01:32:00 AM 54.0842 -177.0810 269° West  Level FlightAware
Fri 01:33:00 AM 54.0802 -177.3068 268° West  Level FlightAware
Fri 01:34:00 AM 54.0758 -177.5325 268° West  Level FlightAware
Fri 01:35:00 AM 54.0710 -177.7583 268° West  Level FlightAware
Fri 01:36:00 AM 54.0658 -177.9839 268° West  Level FlightAware
Fri 01:37:00 AM 54.0601 -178.2095 268° West  Level FlightAware
Fri 01:38:00 AM 54.0540 -178.4350 267° West  Level FlightAware
Fri 01:39:00 AM 54.0475 -178.6604 267° West  Level FlightAware
Fri 01:39:40 AM 54.0500 -178.5333 267° West 472 543 33,000  Level Anchorage Center
Fri 01:40:00 AM 54.0405 -178.8858 267° West  Level FlightAware
Fri 01:41:00 AM 54.0332 -179.1111 267° West  Level FlightAware
Fri 01:42:00 AM 54.0254 -179.3363 267° West  Level FlightAware
Fri 01:43:00 AM 54.0172 -179.5615 267° West  Level FlightAware
Fri 01:44:00 AM 54.0086 -179.7865 266° West  Level FlightAware
Fri 01:45:00 AM 54.0000 -180.0000 284° West 472 543 33,000  Level FlightAware
Fri 01:45:23 AM 54.0000 180.0000 284° West 469 540 33,000  Level Anchorage Center
Fri 01:46:00 AM 54.0305 179.7886 284° West 472 543 33,000  Level FlightAware
Fri 01:46:43 AM 54.0333 179.6833 283° West 470 541 33,000  Level Anchorage Center
Fri 01:47:00 AM 54.0606 179.5768 284° West 472 543 33,000  Level FlightAware
Fri 01:47:43 AM 54.0667 179.5000 287° West 480 552 33,000  Level Anchorage Center
Fri 01:48:00 AM 54.0903 179.3647 283° West 472 543 33,000  Level FlightAware
Fri 01:48:43 AM 54.0833 179.2667 277° West 460 529 33,000  Level Anchorage Center
Fri 01:49:00 AM 54.1197 179.1524 283° West 472 543 33,000  Level FlightAware
Fri 01:49:43 AM 54.1167 179.0333 284° West 460 529 33,000  Level Anchorage Center
Fri 01:50:00 AM 54.1486 178.9397 283° West 472 543 33,000  Level FlightAware
Fri 01:50:43 AM 54.1500 178.8500 287° West 450 518 33,000  Level Anchorage Center
Fri 01:51:00 AM 54.1772 178.7268 283° West 469 540 33,000  Level FlightAware
Fri 01:51:43 AM 54.1667 178.6333 278° West 450 518 33,000  Level Anchorage Center
Fri 01:52:00 AM 54.2055 178.5135 283° West 469 540 33,000  Level FlightAware
Fri 01:52:44 AM 54.2000 178.4500 287° West 450 518 33,000  Level Anchorage Center
Fri 01:53:44 AM 54.2167 178.2167 277° West 450 518 33,000  Level Anchorage Center
Fri 01:54:44 AM 54.2167 178.0333 270° West 450 518 33,000  Level Anchorage Center
Fri 01:55:44 AM 54.2333 177.8000 277° West 440 506 33,000  Level Anchorage Center
Fri 01:56:44 AM 54.2333 177.6167 270° West 440 506 33,000  Level Anchorage Center
Fri 01:57:44 AM 54.2333 177.4000 270° West 440 506 33,000  Level Anchorage Center
Fri 01:58:44 AM 54.2333 177.1667 270° West 440 506 33,000  Level Anchorage Center
Fri 01:59:44 AM 54.2333 176.9833 270° West 440 506 33,000  Level Anchorage Center
Fri 02:00:44 AM 54.2333 176.7500 270° West 440 506 33,000  Level Anchorage Center
Fri 02:01:44 AM 54.2333 176.5667 270° West 440 506 33,000  Level Anchorage Center
Fri 02:02:44 AM 54.2333 176.3333 270° West 450 518 33,000  Level Anchorage Center
Fri 02:03:44 AM 54.2333 176.1500 270° West 450 518 33,000  Level Anchorage Center
Fri 02:04:44 AM 54.2333 175.9333 270° West 440 506 33,000  Level Anchorage Center
Fri 02:05:44 AM 54.2333 175.7000 270° West 440 506 33,000  Level Anchorage Center
Fri 02:06:44 AM 54.2333 175.5167 270° West 440 506 33,000  Level Anchorage Center
Fri 02:07:45 AM 54.2333 175.2833 270° West 450 518 33,000 199 Level Anchorage Center
Fri 02:09:00 AM 54.2325 175.0025 270° West  Level FlightAware
Fri 02:11:45 AM 54.2333 174.4333 268° West 470 541 34,000  Level Anchorage Center
Fri 02:12:45 AM 54.2333 174.2333 270° West 460 529 34,000  Level Anchorage Center
Fri 02:13:45 AM 54.2167 174.0000 263° West 470 541 34,000  Level Anchorage Center
Fri 02:14:45 AM 54.2167 173.7500 270° West 470 541 34,000  Level Anchorage Center
Fri 02:15:45 AM 54.2167 173.5667 270° West 470 541 34,000  Level Anchorage Center
Fri 02:16:00 AM 54.2156 173.4305 270° West  Level FlightAware
Fri 02:16:45 AM 54.2167 173.3167 270° West 480 552 34,000  Level Anchorage Center
Fri 02:17:00 AM 54.2115 173.2060 268° West  Level FlightAware
Fri 02:17:45 AM 54.2000 173.1167 262° West 470 541 34,000  Level Anchorage Center
Fri 02:18:45 AM 54.2000 172.8833 270° West 470 541 34,000  Level Anchorage Center
Fri 02:19:45 AM 54.1833 172.6833 262° West 480 552 34,000  Level Anchorage Center
Fri 02:20:45 AM 54.1167 172.4667 242° Southwest 480 552 34,000  Level Anchorage Center
Fri 02:21:45 AM 54.0167 172.2667 230° Southwest 490 564 34,000  Level Anchorage Center
Fri 02:22:45 AM 53.9500 172.1000 236° Southwest 510 587 34,000  Level Anchorage Center
Fri 02:23:45 AM 53.8667 171.8833 237° Southwest 500 575 34,000  Level Anchorage Center
Fri 02:24:45 AM 53.8000 171.7333 233° Southwest 470 541 34,000  Level Anchorage Center
Fri 02:25:46 AM 53.7167 171.5333 235° Southwest 490 564 34,000  Level Anchorage Center
Fri 02:26:46 AM 53.6500 171.3833 233° Southwest 490 564 34,000  Level Anchorage Center
Fri 02:27:45 AM 53.5667 171.1833 235° Southwest 490 564 34,000  Level Anchorage Center
Fri 02:28:45 AM 53.4833 170.9833 235° Southwest 480 552 34,000  Level Anchorage Center
Fri 02:29:46 AM 53.4167 170.8333 233° Southwest 480 552 34,000  Level Anchorage Center
Fri 02:30:46 AM 53.3333 170.6333 235° Southwest 480 552 34,000  Level Anchorage Center
Fri 02:31:46 AM 53.2500 170.4667 230° Southwest 490 564 34,000  Level Anchorage Center
Fri 02:32:46 AM 53.1667 170.2833 233° Southwest 480 552 34,000  Level Anchorage Center
Fri 02:33:46 AM 53.1000 170.1167 236° Southwest 490 564 34,000  Level Anchorage Center
Fri 02:34:46 AM 53.0167 169.9333 233° Southwest 490 564 34,000  Level Anchorage Center
Fri 02:35:46 AM 52.9333 169.7167 238° Southwest 500 575 34,000  Level Anchorage Center
Fri 02:36:46 AM 52.8833 169.5500 244° Southwest 490 564 34,000  Level Anchorage Center
Fri 02:37:46 AM 52.8000 169.3333 238° Southwest 480 552 34,000  Level Anchorage Center
Fri 02:38:46 AM 52.7500 169.1667 244° Southwest 500 575 34,000  Level Anchorage Center
Fri 02:39:47 AM 52.6833 168.9500 243° Southwest 480 552 34,000  Level Anchorage Center
Fri 02:40:46 AM 52.6167 168.7833 237° Southwest 490 564 34,000  Level Anchorage Center
Fri 02:41:46 AM 52.5500 168.5667 243° Southwest 480 552 34,000  Level Anchorage Center
Fri 02:42:47 AM 52.4833 168.4000 237° Southwest 500 575 34,000  Level Anchorage Center
Fri 02:43:47 AM 52.4000 168.1833 238° Southwest 500 575 34,000  Level Anchorage Center
Fri 02:44:47 AM 52.3333 167.9833 241° Southwest 490 564 34,000  Level Anchorage Center
Fri 02:45:47 AM 52.2667 167.8167 237° Southwest 500 575 34,000  Level Anchorage Center
Fri 02:48:00 AM 52.1866 167.5942 240° Southwest  Level FlightAware
Fri 02:55:00 AM 51.7176 166.3297 239° Southwest  Level FlightAware
Fri 02:56:00 AM 51.6495 166.1512 238° Southwest  Level FlightAware
Fri 02:57:00 AM 51.5812 165.9733 238° Southwest  Level FlightAware
Fri 02:57:44 AM 51.4333 165.5500 237° Southwest 512 589 34,000  Level Anchorage Center
Fri 02:58:00 AM 51.5125 165.7958 238° Southwest  Level FlightAware
Fri 02:58:37 AM 51.3333 165.3167 237° Southwest 514 592 34,000  Level Anchorage Center
Fri 02:59:00 AM 51.4436 165.6190 238° Southwest  Level FlightAware
Fri 03:00:00 AM 51.3750 165.4420 238° Southwest  Level FlightAware
Fri 03:01:00 AM 51.3064 165.2654 238° Southwest  Level FlightAware
Fri 03:02:00 AM 51.2375 165.0893 238° Southwest  Level FlightAware
Fri 03:03:00 AM 50.9500 164.3833 237° Southwest 512 589 34,000  Level FlightAware
Fri 03:03:42 AM 50.9500 164.3833 237° Southwest 515 593 34,000  Level Anchorage Center
Fri 03:04:00 AM 50.8711 164.1918 237° Southwest 514 592 34,000  Level FlightAware
Fri 03:05:00 AM 50.7919 164.0009 237° Southwest 514 592 34,000  Level FlightAware
Fri 03:06:00 AM 50.7123 163.8106 236° Southwest 514 592 34,000  Level FlightAware
Fri 03:07:00 AM 50.6325 163.6210 236° Southwest 514 592 34,000  Level FlightAware
Fri 03:08:00 AM 50.5523 163.4320 236° Southwest 514 592 34,000  Level FlightAware
Fri 03:09:00 AM 50.4719 163.2437 236° Southwest 514 592 34,000  Level FlightAware
Fri 03:10:00 AM 50.4209 163.1251 236° Southwest 515 593 34,000  Level FlightAware
Fri 03:11:00 AM 50.3442 162.9477 236° Southwest 515 593 34,000  Level FlightAware
Fri 03:12:00 AM 50.2673 162.7708 236° Southwest 515 593 34,000  Level FlightAware
Fri 03:13:00 AM 50.1901 162.5945 236° Southwest 515 593 34,000  Level FlightAware
Fri 03:14:00 AM 50.1126 162.4188 235° Southwest 515 593 34,000  Level FlightAware
Fri 03:15:00 AM 50.0348 162.2436 235° Southwest 515 593 34,000  Level FlightAware
Fri 03:16:00 AM 49.9568 162.0690 235° Southwest 515 593 34,000  Level FlightAware
Fri 03:17:00 AM 49.8786 161.8950 235° Southwest 515 593 34,000  Level FlightAware
Fri 03:18:00 AM 49.8000 161.7216 235° Southwest 515 593 34,000  Level FlightAware
Fri 03:19:00 AM 49.7212 161.5487 235° Southwest 515 593 34,000  Level FlightAware
Fri 03:20:00 AM 49.6422 161.3763 235° Southwest 515 593 34,000  Level FlightAware
Fri 03:21:00 AM 49.5629 161.2045 234° Southwest 515 593 34,000  Level FlightAware
Fri 03:21:49 AM 49.4833 161.0333 234° Southwest 526 605 34,000  Level Anchorage Center
Fri 03:22:00 AM 49.4833 161.0333 234° Southwest 515 593 34,000  Level FlightAware
Fri 03:23:00 AM 49.3874 160.8284 234° Southwest 515 593 34,000  Level FlightAware
Fri 03:24:00 AM 49.2911 160.6243 234° Southwest 515 593 34,000  Level FlightAware
Fri 03:25:00 AM 49.1944 160.4209 234° Southwest 515 593 34,000  Level FlightAware
Fri 03:26:00 AM 49.0974 160.2184 234° Southwest 515 593 34,000  Level FlightAware
Fri 03:27:00 AM 49.0161 160.0638 231° Southwest  Level FlightAware
Fri 03:28:00 AM 48.9110 159.8353 233° Southwest 526 605 34,000  Level FlightAware
Fri 03:29:00 AM 48.8218 159.6545 233° Southwest 526 605 34,000  Level FlightAware
Fri 03:30:00 AM 48.7322 159.4744 233° Southwest 526 605 34,000  Level FlightAware
Fri 03:31:00 AM 48.6424 159.2950 233° Southwest 526 605 34,000  Level FlightAware
Fri 03:32:00 AM 48.5523 159.1161 233° Southwest 526 605 34,000  Level FlightAware
Fri 03:33:00 AM 48.4620 158.9380 232° Southwest 526 605 34,000  Level FlightAware
Fri 03:34:00 AM 48.3713 158.7604 232° Southwest 526 605 34,000  Level FlightAware
Fri 03:35:00 AM 48.2804 158.5835 232° Southwest 526 605 34,000  Level FlightAware
Fri 03:36:00 AM 48.1892 158.4072 232° Southwest 526 605 34,000  Level FlightAware
Fri 03:37:00 AM 48.0978 158.2315 232° Southwest 526 605 34,000  Level FlightAware
Fri 03:38:00 AM 48.0060 158.0565 232° Southwest 526 605 34,000  Level FlightAware
Fri 03:39:00 AM 47.9141 157.8821 232° Southwest 526 605 34,000  Level FlightAware
Fri 03:40:00 AM 47.8218 157.7083 232° Southwest 526 605 34,000  Level FlightAware
Fri 03:41:00 AM 47.7293 157.5351 231° Southwest 526 605 34,000  Level FlightAware
Fri 03:42:00 AM 47.6365 157.3625 231° Southwest 526 605 34,000  Level FlightAware
Fri 03:43:00 AM 47.5435 157.1906 231° Southwest 526 605 34,000  Level FlightAware
Fri 03:44:00 AM 47.4502 157.0193 231° Southwest 526 605 34,000  Level FlightAware
Fri 03:45:00 AM 47.3567 156.8485 231° Southwest 526 605 34,000  Level FlightAware
Fri 03:46:00 AM 47.2629 156.6784 231° Southwest 526 605 34,000  Level FlightAware
Fri 03:47:00 AM 47.1688 156.5089 231° Southwest 526 605 34,000  Level FlightAware
Fri 03:48:00 AM 47.0745 156.3399 231° Southwest 526 605 34,000  Level FlightAware
Fri 03:49:00 AM 46.9800 156.1716 230° Southwest 526 605 34,000  Level FlightAware
Fri 03:50:00 AM 46.8852 156.0039 230° Southwest 526 605 34,000  Level FlightAware
Fri 03:51:00 AM 46.7902 155.8367 230° Southwest 526 605 34,000  Level FlightAware
Fri 03:52:00 AM 46.6949 155.6702 230° Southwest 526 605 34,000  Level FlightAware
Fri 03:53:00 AM 46.5994 155.5042 230° Southwest 526 605 34,000  Level FlightAware
Fri 03:54:00 AM 46.5037 155.3389 230° Southwest 526 605 34,000  Level FlightAware
Fri 03:55:00 AM 46.4077 155.1741 230° Southwest 526 605 34,000  Level FlightAware
Fri 03:56:00 AM 46.3114 155.0098 230° Southwest 526 605 34,000  Level FlightAware
Fri 03:57:00 AM 46.2150 154.8462 229° Southwest 526 605 34,000  Level FlightAware
Fri 03:58:00 AM 46.1183 154.6831 229° Southwest 526 605 34,000  Level FlightAware
Fri 03:59:00 AM 46.0214 154.5206 229° Southwest 526 605 34,000  Level FlightAware
Fri 04:00:00 AM 45.9242 154.3587 229° Southwest 526 605 34,000  Level FlightAware
Fri 04:01:00 AM 45.8268 154.1974 229° Southwest 526 605 34,000  Level FlightAware
Fri 04:02:00 AM 45.7292 154.0366 229° Southwest 526 605 34,000  Level FlightAware
Fri 04:03:00 AM 45.6314 153.8763 229° Southwest 526 605 34,000  Level FlightAware
Fri 04:04:00 AM 45.5385 153.7469 224° Southwest  Level FlightAware
Fri 04:05:00 AM 45.4454 153.6179 224° Southwest  Level FlightAware
Fri 04:06:00 AM 45.4631 153.6301 229° Southwest  Level FlightAware
Fri 04:07:00 AM 45.3771 153.4917 229° Southwest  Level FlightAware
Fri 04:08:00 AM 45.2910 153.3536 228° Southwest  Level FlightAware
Fri 04:09:00 AM 45.2046 153.2160 228° Southwest  Level FlightAware
Fri 04:10:00 AM 45.1181 153.0788 228° Southwest  Level FlightAware
Fri 04:11:00 AM 45.0315 152.9421 228° Southwest  Level FlightAware
Fri 04:12:00 AM 44.9447 152.8057 228° Southwest  Level FlightAware
Fri 04:13:00 AM 44.8577 152.6698 228° Southwest  Level FlightAware
Fri 04:14:00 AM 44.7705 152.5342 228° Southwest  Level FlightAware
Fri 04:15:00 AM 44.6832 152.3991 228° Southwest  Level FlightAware
Fri 04:16:00 AM 44.5958 152.2644 228° Southwest  Level FlightAware
Fri 04:17:00 AM 44.5082 152.1301 228° Southwest  Level FlightAware
Fri 04:18:00 AM 44.4203 151.9962 227° Southwest  Level FlightAware
Fri 04:19:00 AM 44.3323 151.8629 227° Southwest  Level FlightAware
Fri 04:20:00 AM 44.2440 151.7299 227° Southwest  Level FlightAware
Fri 04:21:00 AM 44.1557 151.5974 227° Southwest  Level FlightAware
Fri 04:22:00 AM 44.0672 151.4653 227° Southwest  Level FlightAware
Fri 04:23:00 AM 43.9785 151.3335 227° Southwest  Level FlightAware
Fri 04:24:00 AM 43.8894 151.2025 227° Southwest  Level FlightAware
Fri 04:25:00 AM 43.8000 151.0721 226° Southwest  Level FlightAware
Fri 04:26:00 AM 43.7104 150.9421 226° Southwest  Level FlightAware
Fri 04:27:00 AM 43.6207 150.8125 226° Southwest  Level FlightAware
Fri 04:28:00 AM 43.5308 150.6833 226° Southwest  Level FlightAware
Fri 04:29:00 AM 43.4408 150.5545 226° Southwest  Level FlightAware
Fri 04:30:00 AM 43.3506 150.4261 226° Southwest  Level FlightAware
Fri 04:31:00 AM 43.2603 150.2981 226° Southwest  Level FlightAware
Fri 04:32:00 AM 43.1698 150.1704 226° Southwest  Level FlightAware
Fri 04:33:00 AM 43.0793 150.0431 226° Southwest  Level FlightAware
Fri 04:34:00 AM 42.9885 149.9162 226° Southwest  Level FlightAware
Fri 04:35:00 AM 42.8976 149.7897 226° Southwest  Level FlightAware
Fri 04:36:00 AM 42.8066 149.6635 226° Southwest  Level FlightAware
Fri 04:37:00 AM 42.7155 149.5377 225° Southwest  Level FlightAware
Fri 04:38:00 AM 42.6242 149.4123 225° Southwest  Level FlightAware
Fri 04:39:00 AM 42.5327 149.2873 225° Southwest  Level FlightAware
Fri 04:40:00 AM 42.4412 149.1626 225° Southwest  Level FlightAware
Fri 04:41:00 AM 42.3495 149.0383 225° Southwest  Level FlightAware
Fri 04:42:00 AM 42.2577 148.9143 225° Southwest  Level FlightAware
Fri 04:43:00 AM 42.1657 148.7907 225° Southwest  Level FlightAware
Fri 04:44:00 AM 42.0736 148.6675 225° Southwest  Level FlightAware
Fri 04:45:00 AM 41.9814 148.5446 225° Southwest  Level FlightAware
Fri 04:46:00 AM 41.8890 148.4220 225° Southwest  Level FlightAware
Fri 04:47:00 AM 41.7965 148.2999 225° Southwest  Level FlightAware
Fri 04:48:00 AM 41.7037 148.1783 224° Southwest  Level FlightAware
Fri 04:49:00 AM 41.6103 148.0578 224° Southwest  Level FlightAware
Fri 04:50:00 AM 41.5168 147.9376 224° Southwest  Level FlightAware
Fri 04:51:00 AM 41.4231 147.8177 224° Southwest  Level FlightAware
Fri 04:52:00 AM 41.3293 147.6982 224° Southwest  Level FlightAware
Fri 04:53:00 AM 41.2354 147.5791 224° Southwest  Level FlightAware
Fri 04:54:00 AM 41.1414 147.4602 224° Southwest  Level FlightAware
Fri 04:55:00 AM 41.0472 147.3418 224° Southwest  Level FlightAware
Fri 04:56:00 AM 40.9529 147.2236 223° Southwest  Level FlightAware
Fri 04:57:00 AM 40.8585 147.1058 223° Southwest  Level FlightAware
Fri 04:58:00 AM 40.7640 146.9883 223° Southwest  Level FlightAware
Fri 04:59:00 AM 40.6694 146.8712 223° Southwest  Level FlightAware
Fri 05:00:00 AM 40.5746 146.7544 223° Southwest  Level FlightAware
Fri 05:01:00 AM 40.4798 146.6379 223° Southwest  Level FlightAware
Fri 05:02:00 AM 40.3848 146.5218 223° Southwest  Level FlightAware
Fri 05:03:00 AM 40.2897 146.4060 223° Southwest  Level FlightAware
Fri 05:04:00 AM 40.1944 146.2905 223° Southwest  Level FlightAware
Fri 05:05:00 AM 40.0991 146.1753 223° Southwest  Level FlightAware
Fri 05:06:00 AM 40.0037 146.0605 223° Southwest  Level FlightAware
Fri 05:07:00 AM 39.9081 145.9459 223° Southwest  Level FlightAware
Fri 05:08:00 AM 39.8124 145.8317 223° Southwest  Level FlightAware
Fri 05:09:00 AM 39.7166 145.7178 222° Southwest  Level FlightAware
Fri 05:10:00 AM 39.6208 145.6043 222° Southwest  Level FlightAware
Fri 05:11:00 AM 39.5248 145.4910 222° Southwest  Level FlightAware
Fri 05:12:00 AM 39.4286 145.3781 222° Southwest  Level FlightAware
Fri 05:13:00 AM 39.3324 145.2654 222° Southwest  Level FlightAware
Fri 05:14:00 AM 39.2361 145.1531 222° Southwest  Level FlightAware
Fri 05:15:00 AM 39.1397 145.0411 222° Southwest  Level FlightAware
Fri 05:16:00 AM 39.0431 144.9294 222° Southwest  Level FlightAware
Fri 05:17:00 AM 38.9465 144.8180 222° Southwest  Level FlightAware
Fri 05:18:00 AM 38.8497 144.7069 222° Southwest  Level FlightAware
Fri 05:19:00 AM 38.7527 144.5962 222° Southwest  Level FlightAware
Fri 05:20:00 AM 38.6555 144.4860 222° Southwest  Level FlightAware
Fri 05:21:00 AM 38.5583 144.3761 221° Southwest  Level FlightAware
Fri 05:22:00 AM 38.4609 144.2665 221° Southwest  Level FlightAware
Fri 05:23:00 AM 38.3634 144.1572 221° Southwest  Level FlightAware
Fri 05:24:00 AM 38.2658 144.0482 221° Southwest  Level FlightAware
Fri 05:25:00 AM 38.1682 143.9395 221° Southwest  Level FlightAware
Fri 05:26:00 AM 38.0704 143.8311 221° Southwest  Level FlightAware
Fri 05:27:00 AM 37.9725 143.7229 221° Southwest  Level FlightAware
Fri 05:28:00 AM 37.8745 143.6151 221° Southwest  Level FlightAware
Fri 05:29:00 AM 37.7888 143.4965 249° West  Level FlightAware
Fri 05:30:00 AM 37.7420 143.3434 249° West  Level FlightAware
Fri 05:31:00 AM 37.6949 143.1905 249° West  Level FlightAware
Fri 05:32:00 AM 37.6477 143.0378 249° West  Level FlightAware
Fri 05:33:00 AM 37.6003 142.8853 249° West  Level FlightAware
Fri 05:34:00 AM 37.5527 142.7330 249° West  Level FlightAware
Fri 05:35:00 AM 37.5049 142.5809 248° West  Level FlightAware
Fri 05:36:00 AM 37.4569 142.4290 248° West  Level FlightAware
Fri 05:37:00 AM 37.4087 142.2773 248° West  Level FlightAware
Fri 05:38:00 AM 37.3581 142.1269 247° West  Level FlightAware
Fri 05:39:00 AM 37.3069 141.9769 247° West  Level FlightAware
Fri 05:40:00 AM 37.2555 141.8272 247° West  Level FlightAware
Fri 05:41:00 AM 37.2039 141.6776 247° West  Level FlightAware
Fri 05:42:00 AM 37.1522 141.5283 247° West  Level FlightAware
Fri 05:43:00 AM 37.1002 141.3792 246° West  Level FlightAware
Fri 05:44:00 AM 37.0483 141.2301 247° West  Level FlightAware
Fri 05:45:00 AM 36.9966 141.0811 247° West  Level FlightAware
Fri 05:46:00 AM 36.9447 140.9322 246° West  Level FlightAware
Fri 05:47:00 AM 36.8926 140.7835 246° West  Level FlightAware
Fri 05:48:00 AM 36.8403 140.6351 246° West  Level FlightAware
Fri 05:49:00 AM 36.7879 140.4868 246° West  Level FlightAware
Fri 05:50:00 AM 36.7353 140.3388 246° West  Level FlightAware
Fri 05:51:00 AM 36.6658 140.2021 237° Southwest  Level FlightAware
Fri 05:52:00 AM 36.5956 140.0662 237° Southwest  Level FlightAware
Fri 05:53:00 AM 36.5252 139.9304 237° Southwest  Level FlightAware
Fri 05:54:00 AM 36.4586 139.7921 242° Southwest  Level FlightAware
Fri 05:55:00 AM 36.3976 139.6498 242° Southwest  Level FlightAware
Fri 05:56:00 AM 36.3364 139.5076 242° Southwest  Level FlightAware
Fri 05:57:00 AM 36.2750 139.3658 242° Southwest  Level FlightAware
Fri 05:58:00 AM 36.2135 139.2241 242° Southwest  Level FlightAware
Fri 05:59:00 AM 36.1524 139.0823 243° Southwest  Level FlightAware
Fri 06:00:00 AM 36.0927 138.9396 243° Southwest  Level FlightAware
Fri 06:01:00 AM 36.0330 138.7972 243° Southwest  Level FlightAware
Fri 06:02:00 AM 35.9730 138.6549 243° Southwest  Level FlightAware
Fri 06:03:00 AM 35.9129 138.5129 242° Southwest  Level FlightAware
Fri 06:04:00 AM 35.8526 138.3710 242° Southwest  Level FlightAware
Fri 06:05:00 AM 35.7921 138.2294 242° Southwest  Level FlightAware
Fri 06:06:00 AM 35.7315 138.0880 242° Southwest  Level FlightAware
Fri 06:07:00 AM 35.6707 137.9469 242° Southwest  Level FlightAware
Fri 06:08:00 AM 35.6098 137.8059 242° Southwest  Level FlightAware
Fri 06:09:00 AM 35.5520 137.6630 244° Southwest  Level FlightAware
Fri 06:10:00 AM 35.4948 137.5200 244° Southwest  Level FlightAware
Fri 06:11:00 AM 35.4085 137.4111 209° Southwest  Level FlightAware
Fri 06:12:00 AM 35.2946 137.3349 209° Southwest  Level FlightAware
Fri 06:13:00 AM 35.1806 137.2590 209° Southwest  Level FlightAware
Fri 06:14:00 AM 35.0666 137.1833 208° Southwest  Level FlightAware
Fri 06:15:00 AM 34.9516 137.1098 208° Southwest  Level FlightAware
Fri 06:16:00 AM 34.8366 137.0366 208° Southwest  Level FlightAware
Fri 06:17:00 AM 34.7215 136.9636 208° Southwest  Level FlightAware
Fri 06:18:00 AM 34.6153 136.8735 217° Southwest  Level FlightAware
Fri 06:19:00 AM 34.5111 136.7796 217° Southwest  Level FlightAware
Fri 06:20:00 AM 34.4068 136.6859 217° Southwest  Level FlightAware
Fri 06:21:00 AM 34.3051 136.5884 220° Southwest  Level FlightAware
Fri 06:22:00 AM 34.1995 136.4995 220° Southwest  Level FlightAware
Fri 06:23:00 AM 34.0996 136.3996 220° Southwest  Level FlightAware
Fri 06:24:00 AM 33.9973 136.3032 218° Southwest  Level FlightAware
Fri 06:25:00 AM 33.8945 136.2078 218° Southwest  Level FlightAware
Fri 06:26:00 AM 33.7916 136.1126 218° Southwest  Level FlightAware
Fri 06:27:00 AM 33.6886 136.0176 218° Southwest  Level FlightAware
Fri 06:28:00 AM 33.5856 135.9228 217° Southwest  Level FlightAware
Fri 06:29:00 AM 33.4825 135.8283 217° Southwest  Level FlightAware
Fri 06:30:00 AM 33.4161 135.7046 255° West  Level FlightAware
Fri 06:31:00 AM 33.3830 135.5544 255° West  Level FlightAware
Fri 06:32:00 AM 33.3497 135.4042 255° West  Level FlightAware
Fri 06:33:00 AM 33.3163 135.2541 255° West  Level FlightAware
Fri 06:34:00 AM 33.2826 135.1042 255° West  Level FlightAware
Fri 06:35:00 AM 33.2435 134.9564 254° West  Level FlightAware
Fri 06:36:00 AM 33.2071 134.8075 254° West  Level FlightAware
Fri 06:37:00 AM 33.1706 134.6587 254° West  Level FlightAware
Fri 06:38:00 AM 33.1339 134.5101 254° West  Level FlightAware
Fri 06:39:00 AM 33.0970 134.3615 254° West  Level FlightAware
Fri 06:40:00 AM 33.0600 134.2131 253° West  Level FlightAware
Fri 06:41:00 AM 33.0227 134.0648 253° West  Level FlightAware
Fri 06:42:00 AM 32.9853 133.9167 253° West  Level FlightAware
Fri 06:43:00 AM 32.9478 133.7686 253° West  Level FlightAware
Fri 06:44:00 AM 32.9100 133.6207 253° West  Level FlightAware
Fri 06:45:00 AM 32.8725 133.4728 254° West  Level FlightAware
Fri 06:46:00 AM 32.8357 133.3247 254° West  Level FlightAware
Fri 06:47:00 AM 32.7986 133.1767 253° West  Level FlightAware
Fri 06:48:00 AM 32.7615 133.0288 253° West  Level FlightAware
Fri 06:49:00 AM 32.7092 132.8882 243° Southwest  Level FlightAware
Fri 06:50:00 AM 32.6502 132.7509 243° Southwest  Level FlightAware
Fri 06:51:00 AM 32.5911 132.6138 243° Southwest  Level FlightAware
Fri 06:52:00 AM 32.5318 132.4768 243° Southwest  Level FlightAware
Fri 06:53:00 AM 32.4723 132.3401 243° Southwest  Level FlightAware
Fri 06:54:00 AM 32.4127 132.2035 243° Southwest  Level FlightAware
Fri 06:55:00 AM 32.3530 132.0671 243° Southwest  Level FlightAware
Fri 06:56:00 AM 32.2930 131.9309 243° Southwest  Level FlightAware
Fri 06:57:00 AM 32.2330 131.7948 242° Southwest  Level FlightAware
Fri 06:58:00 AM 32.1728 131.6590 242° Southwest  Level FlightAware
Fri 06:59:00 AM 32.1125 131.5233 242° Southwest  Level FlightAware
Fri 07:00:00 AM 32.0520 131.3878 242° Southwest  Level FlightAware
Fri 07:01:00 AM 31.9917 131.2523 242° Southwest  Level FlightAware
Fri 07:02:00 AM 31.9313 131.1169 242° Southwest  Level FlightAware
Fri 07:03:00 AM 31.8707 130.9817 242° Southwest  Level FlightAware
Fri 07:04:00 AM 31.8100 130.8467 242° Southwest  Level FlightAware
Fri 07:05:00 AM 31.7491 130.7119 242° Southwest  Level FlightAware
Fri 07:06:00 AM 31.6882 130.5773 242° Southwest  Level FlightAware
Fri 07:07:00 AM 31.6109 130.4550 233° Southwest  Level FlightAware
Fri 07:08:00 AM 31.5322 130.3339 233° Southwest  Level FlightAware
Fri 07:09:00 AM 31.4534 130.2130 233° Southwest  Level FlightAware
Fri 07:10:00 AM 31.3744 130.0923 233° Southwest  Level FlightAware
Fri 07:11:00 AM 31.2953 129.9719 232° Southwest  Level FlightAware
Fri 07:12:00 AM 31.2162 129.8516 232° Southwest  Level FlightAware
Fri 07:13:00 AM 31.1369 129.7316 232° Southwest  Level FlightAware
Fri 07:14:00 AM 31.0575 129.6117 232° Southwest  Level FlightAware
Fri 07:15:00 AM 30.9780 129.4920 232° Southwest  Level FlightAware
Fri 07:16:00 AM 30.8986 129.3724 233° Southwest  Level FlightAware
Fri 07:17:00 AM 30.8197 129.2523 233° Southwest  Level FlightAware
Fri 07:18:00 AM 30.7408 129.1325 233° Southwest  Level FlightAware
Fri 07:19:00 AM 30.6617 129.0128 232° Southwest  Level FlightAware
Fri 07:20:00 AM 30.5825 128.8934 232° Southwest  Level FlightAware
Fri 07:21:00 AM 30.5032 128.7741 232° Southwest  Level FlightAware
Fri 07:22:00 AM 30.4238 128.6550 232° Southwest  Level FlightAware
Fri 07:23:00 AM 30.3443 128.5362 232° Southwest  Level FlightAware
Fri 07:24:00 AM 30.2647 128.4175 232° Southwest  Level FlightAware
Fri 07:25:00 AM 30.1850 128.2990 232° Southwest  Level FlightAware
Fri 07:26:00 AM 30.1051 128.1807 232° Southwest  Level FlightAware
Fri 07:27:00 AM 30.0252 128.0626 232° Southwest  Level FlightAware
Fri 07:28:00 AM 29.9386 127.9513 229° Southwest  Level FlightAware
Fri 07:29:00 AM 29.8536 127.8382 229° Southwest  Level FlightAware
Fri 07:30:00 AM 29.7730 127.7210 232° Southwest  Level FlightAware
Fri 07:31:00 AM 29.6925 127.6038 232° Southwest  Level FlightAware
Fri 07:32:00 AM 29.6119 127.4868 232° Southwest  Level FlightAware
Fri 07:33:00 AM 29.5311 127.3700 232° Southwest  Level FlightAware
Fri 07:34:00 AM 29.4503 127.2534 231° Southwest  Level FlightAware
Fri 07:35:00 AM 29.3694 127.1370 231° Southwest  Level FlightAware
Fri 07:36:00 AM 29.2883 127.0207 231° Southwest  Level FlightAware
Fri 07:37:00 AM 29.2072 126.9047 231° Southwest  Level FlightAware
Fri 07:38:00 AM 29.1259 126.7888 231° Southwest  Level FlightAware
Fri 07:39:00 AM 29.0446 126.6731 231° Southwest  Level FlightAware
Fri 07:40:00 AM 28.9632 126.5576 231° Southwest  Level FlightAware
Fri 07:41:00 AM 28.8817 126.4423 231° Southwest  Level FlightAware
Fri 07:42:00 AM 28.8000 126.3271 231° Southwest  Level FlightAware
Fri 07:43:00 AM 28.7183 126.2121 231° Southwest  Level FlightAware
Fri 07:44:00 AM 28.6365 126.0973 231° Southwest  Level FlightAware
Fri 07:45:00 AM 28.5546 125.9827 231° Southwest  Level FlightAware
Fri 07:46:00 AM 28.4725 125.8683 231° Southwest  Level FlightAware
Fri 07:47:00 AM 28.3902 125.7542 231° Southwest  Level FlightAware
Fri 07:48:00 AM 28.3078 125.6404 231° Southwest  Level FlightAware
Fri 07:49:00 AM 28.2253 125.5267 231° Southwest  Level FlightAware
Fri 07:50:00 AM 28.1427 125.4131 230° Southwest  Level FlightAware
Fri 07:51:00 AM 28.0599 125.2998 230° Southwest  Level FlightAware
Fri 07:52:00 AM 27.9772 125.1866 230° Southwest  Level FlightAware
Fri 07:53:00 AM 27.8943 125.0736 230° Southwest  Level FlightAware
Fri 07:54:00 AM 27.8113 124.9607 230° Southwest  Level FlightAware
Fri 07:55:00 AM 27.7282 124.8481 230° Southwest  Level FlightAware
Fri 07:56:00 AM 27.6451 124.7356 230° Southwest  Level FlightAware
Fri 07:57:00 AM 27.5618 124.6233 230° Southwest  Level FlightAware
Fri 07:58:00 AM 27.4785 124.5111 230° Southwest  Level FlightAware
Fri 07:59:00 AM 27.3950 124.3991 230° Southwest  Level FlightAware
Fri 08:00:00 AM 27.3115 124.2873 230° Southwest  Level FlightAware
Fri 08:01:00 AM 27.2279 124.1757 230° Southwest  Level FlightAware
Fri 08:02:00 AM 27.1442 124.0642 230° Southwest  Level FlightAware
Fri 08:03:00 AM 27.0604 123.9529 230° Southwest  Level FlightAware
Fri 08:04:00 AM 26.9763 123.8420 230° Southwest  Level FlightAware
Fri 08:05:00 AM 26.8922 123.7311 230° Southwest  Level FlightAware
Fri 08:06:00 AM 26.8080 123.6205 230° Southwest  Level FlightAware
Fri 08:07:00 AM 26.7237 123.5100 230° Southwest  Level FlightAware
Fri 08:08:00 AM 26.6393 123.3997 229° Southwest  Level FlightAware
Fri 08:09:00 AM 26.5548 123.2895 229° Southwest  Level FlightAware
Fri 08:10:00 AM 26.4703 123.1795 229° Southwest  Level FlightAware
Fri 08:11:00 AM 26.3857 123.0697 229° Southwest  Level FlightAware
Fri 08:12:00 AM 26.3002 122.9607 229° Southwest  Level FlightAware
Fri 08:13:00 AM 26.2146 122.8519 229° Southwest  Level FlightAware
Fri 08:14:00 AM 26.1331 122.7396 229° Southwest  Level FlightAware
Fri 08:15:00 AM 26.0487 122.6298 229° Southwest  Level FlightAware
Fri 08:16:00 AM 25.9635 122.5209 228° Southwest  Level FlightAware
Fri 08:17:00 AM 25.8773 122.4131 228° Southwest  Level FlightAware
Fri 08:18:00 AM 25.7912 122.3053 229° Southwest  Level FlightAware
Fri 08:19:00 AM 25.7064 122.1961 229° Southwest  Level FlightAware
Fri 08:20:00 AM 25.6216 122.0872 229° Southwest  Level FlightAware
Fri 08:21:00 AM 25.5375 121.9777 230° Southwest  Level FlightAware
Fri 08:22:00 AM 25.4696 121.8557 241° Southwest  Level FlightAware
Fri 08:23:00 AM 25.4007 121.7343 234° Southwest  Level FlightAware
Fri 08:24:00 AM 25.3237 121.6188 234° Southwest  Level FlightAware
Fri 08:25:00 AM 25.2489 121.5015 235° Southwest  Level FlightAware
Fri 08:26:00 AM 25.1796 121.3839 230° Southwest  Level FlightAware
Fri 08:27:00 AM 25.1046 121.2672 230° Southwest  Level FlightAware
Fri 08:28:00 AM 25.0777 121.2328 230° Southwest  Level Estimated
Fri 08:29:00 AM 25.0777 121.2328 230° Southwest  Level Estimated
Fri 08:30:00 AM 25.0777 121.2328 230° Southwest  Level Estimated
Fri 08:31:00 AM 25.0777 121.2328 230° Southwest  Level Estimated
Fri 08:32:00 AM 25.0777 121.2328 230° Southwest  Level Estimated
Fri 08:33:00 AM 25.0777 121.2328 230° Southwest  Level Estimated
Fri 08:34:00 AM 25.0777 121.2328 230° Southwest  Level Estimated
Fri 08:35:00 AM 25.0777 121.2328 230° Southwest  Level Estimated
Fri 08:36:00 AM 25.0777 121.2328 230° Southwest  Level Estimated
Fri 08:37:00 AM 25.0777 121.2328 230° Southwest  Level Estimated
Fri 08:38:00 AM 25.0777 121.2328 230° Southwest  Level Estimated
Fri 08:39:00 AM 25.0777 121.2328 230° Southwest  Level Estimated
Fri 08:40:00 AM 25.0777 121.2328 230° Southwest  Level Estimated
Fri 08:41:00 AM 25.0777 121.2328 230° Southwest  Level Estimated
Fri 08:42:00 AM 25.0777 121.2328 230° Southwest  Level Estimated
Fri 08:43:00 AM 25.0777 121.2328 230° Southwest  Level Estimated

Login

Don't have an account? Register now (free) for customized features, flight alerts, and more!